KACY/ACY METAR and TAF weather

Enter ICAO airport designator
Station Type Date Time Source
KACY METAR 2021/04/13 22:54 UTC NOAA

KACY 132254Z 16006KT 10SM CLR 12/04 A3005 RMK AO2 SLP176 T01170044


Station Type Date Time Source
KACY Decoded METAR 2021/04/13 22:54 UTC NOAA

ATLANTIC CITY INTERNATIONAL, NJ, United States (KACY) 39-28N 74-35W 35M
Apr 13, 2021 - 06:54 PM EDT / 2021.04.13 2254 UTC
Wind: from the SSE (160 degrees) at 7 MPH (6 KT):0
Visibility: 10 mile(s):0
Sky conditions: clear
Temperature: 53.1 F (11.7 C)
Dew Point: 39.9 F (4.4 C)
Relative Humidity: 60%
Pressure (altimeter): 30.05 in. Hg (1017 hPa)
ob: KACY 132254Z 16006KT 10SM CLR 12/04 A3005 RMK AO2 SLP176 T01170044
cycle: 23

Station Type Date Time Source
KACY TAF 2021/04/13 18:42 UTC NOAA

TAF KACY 131734Z 1318/1418 03009KT P6SM FEW035 FEW250
FM132200 VRB04KT P6SM FEW250
FM141400 24004KT P6SM SCT050 BKN110
FM141700 22008KT P6SM BKN045

Example: see airport list